Lakeview, California
Current Conditions -  °F | °C
As of 6:58 PM on Friday 21 Nov 2014 (Local Time) from KRIV Reporting Station
Clear Clear  
Wind Chill: 55°   Ceiling: Unl
Heat Index: 55°   Visibility: 10mi
Dew Point: 44°   Wind: 3mph
Humidity: 68%   Direction: 300°WNW
Pressure: 30.02"   Gusts: NA
Location:  33.8416°N, 117.11°W
Report Text: KRIV 220258Z AUTO 30003KT 10SM CLR 13/07 A3002 RMK AO2 SLP164 T01260069 52021
Loading
Personal Weather Stations






























Interactive Weather Map New forecast layout! Learn more

10-Day Weather Forecast

Advertisements
Track Severe Weather on mobile